臺北終端管制區 - 桃園五邊雷達席

METAR RCTP 232000Z 16006KT 9999 FEW020 19/17 Q1020 NOSIG RMK A3013=

站台狀態:Online
最後更新:2020-02-24 04:00:04